createdAt,value
2023-03-01T07:29:10.788Z,96.90
2023-03-01T07:39:18.658Z,99.00
2023-03-01T07:49:26.101Z,87.50
2023-03-01T07:59:32.859Z,90.20
2023-03-01T08:09:39.844Z,83.60
2023-03-01T08:19:45.397Z,74.30
2023-03-01T08:29:51.931Z,68.40
2023-03-01T08:39:58.350Z,61.20
2023-03-01T08:50:05.365Z,58.60
2023-03-01T09:00:13.500Z,61.40
2023-03-01T09:10:20.413Z,47.40
2023-03-01T09:20:26.750Z,45.20
2023-03-01T09:30:33.501Z,40.10
2023-03-01T09:40:44.738Z,40.20
2023-03-01T09:50:52.182Z,40.30
2023-03-01T10:01:02.176Z,43.30
2023-03-01T10:11:27.096Z,46.40
2023-03-01T10:21:34.164Z,41.60
2023-03-01T10:31:42.913Z,42.10
2023-03-01T10:42:06.846Z,47.40
2023-03-01T10:52:22.837Z,50.70
2023-03-01T11:02:34.823Z,47.40
2023-03-01T11:12:41.421Z,40.70
2023-03-01T11:22:51.544Z,48.70
2023-03-01T11:33:03.827Z,46.50
2023-03-01T11:43:37.689Z,52.70
2023-03-01T11:53:56.895Z,52.40
2023-03-01T12:04:33.345Z,46.40
2023-03-01T12:14:51.963Z,42.70
2023-03-01T12:25:07.428Z,45.80
2023-03-01T12:35:28.736Z,44.90
2023-03-01T12:45:47.506Z,41.70
2023-03-01T12:56:07.208Z,41.50
2023-03-01T13:06:20.968Z,42.80
2023-03-01T13:16:42.256Z,41.00
2023-03-01T13:27:20.659Z,34.70
2023-03-01T13:37:32.687Z,39.70
2023-03-01T13:47:39.797Z,38.40
2023-03-01T13:57:55.848Z,35.00
2023-03-01T14:08:02.137Z,43.50
2023-03-01T14:18:17.344Z,45.30
2023-03-01T14:28:28.993Z,30.10
2023-03-01T14:38:43.962Z,33.10
2023-03-01T14:48:58.774Z,36.70
2023-03-01T14:59:05.096Z,30.60
2023-03-01T15:09:17.319Z,36.40
2023-03-01T15:19:26.255Z,38.00
2023-03-01T15:29:35.614Z,33.80
2023-03-01T15:39:45.317Z,85.10
2023-03-01T15:49:55.872Z,38.70
2023-03-01T16:00:02.693Z,48.60
2023-03-01T16:10:09.676Z,46.10
2023-03-01T16:20:27.911Z,40.00
2023-03-01T16:30:37.449Z,41.40
2023-03-01T16:40:49.644Z,49.40
2023-03-01T16:51:02.492Z,80.00
2023-03-01T17:01:20.435Z,66.70
2023-03-01T17:11:25.818Z,73.65
2023-03-01T17:21:33.052Z,127.00
2023-03-01T17:31:39.625Z,108.10
2023-03-01T17:41:46.002Z,96.20
2023-03-01T17:51:52.429Z,97.90
2023-03-01T18:01:59.842Z,107.10
2023-03-01T18:12:06.236Z,154.90
2023-03-01T18:22:12.756Z,125.20
2023-03-01T18:32:19.211Z,149.70
2023-03-01T18:42:25.966Z,195.20
2023-03-01T18:52:32.241Z,173.60
2023-03-01T19:02:38.613Z,155.20
2023-03-01T19:12:45.340Z,139.90
2023-03-01T19:22:51.727Z,125.90
2023-03-01T19:32:58.147Z,122.30
2023-03-01T19:43:04.551Z,120.30
2023-03-01T19:53:10.873Z,106.90
2023-03-01T20:03:17.536Z,106.30
2023-03-01T20:13:24.331Z,98.50
2023-03-01T20:23:30.787Z,90.40
2023-03-01T20:33:37.144Z,96.10
2023-03-01T20:43:44.230Z,125.80
2023-03-01T20:53:50.723Z,162.90
2023-03-01T21:03:57.362Z,122.20
2023-03-01T21:14:05.051Z,117.90
2023-03-01T21:24:13.343Z,109.90
2023-03-01T21:34:19.744Z,106.30
2023-03-01T21:44:27.760Z,101.60
2023-03-01T21:54:34.270Z,109.20
2023-03-01T22:04:42.522Z,203.80
2023-03-01T22:14:48.846Z,120.60
2023-03-01T22:24:55.563Z,277.50
2023-03-01T22:35:01.910Z,183.30
2023-03-01T22:45:08.716Z,262.00
2023-03-01T22:55:15.015Z,168.30
2023-03-01T23:05:21.337Z,139.30
2023-03-01T23:15:27.667Z,133.30
2023-03-01T23:25:34.028Z,133.10
2023-03-01T23:35:40.839Z,124.30
2023-03-01T23:45:47.277Z,129.10
2023-03-01T23:55:55.243Z,129.40
